Time;durP1;ratioP1;P1;durP2;ratioP2;P2;SDS_P1;SDS_P2;PMS_P1;PMS_P2;Temp;Humidity;BMP_temperature;BMP_pressure;BME280_temperature;BME280_humidity;BME280_pressure;Samples;Min_cycle;Max_cycle;Signal;HPM_P1;HPM_P2
2022/03/07 00:01:04;;;;;;;3.45;2.05;;;2.20;99.90;;;;;;5022813;28;20063;-63
2022/03/07 00:03:29;;;;;;;6.88;2.22;;;2.10;99.90;;;;;;5019022;28;20600;-60
2022/03/07 00:05:55;;;;;;;6.65;2.30;;;2.00;99.90;;;;;;5021456;28;20037;-60
2022/03/07 00:08:20;;;;;;;6.35;2.75;;;2.00;99.90;;;;;;5020204;28;20041;-60
2022/03/07 00:10:46;;;;;;;6.18;2.13;;;2.00;99.90;;;;;;5021228;28;20038;-60
2022/03/07 00:13:12;;;;;;;4.68;1.92;;;1.90;99.90;;;;;;5020889;28;20033;-60
2022/03/07 00:15:38;;;;;;;5.75;2.42;;;1.90;99.90;;;;;;5019148;28;20505;-60
2022/03/07 00:18:03;;;;;;;5.60;2.15;;;1.90;99.90;;;;;;5019801;28;20037;-60
2022/03/07 00:20:30;;;;;;;4.47;2.50;;;1.80;99.90;;;;;;5022305;28;20034;-61
2022/03/07 00:22:56;;;;;;;8.05;2.45;;;1.70;99.90;;;;;;5018118;28;20511;-59
2022/03/07 00:25:21;;;;;;;3.25;1.90;;;1.70;99.90;;;;;;5021579;28;20069;-61
2022/03/07 00:27:47;;;;;;;7.68;2.85;;;1.70;99.90;;;;;;5019268;28;20037;-60
2022/03/07 00:30:15;;;;;;;7.30;2.58;;;1.60;99.90;;;;;;5020674;28;20042;-60
2022/03/07 00:32:42;;;;;;;8.15;2.70;;;1.60;99.90;;;;;;5035815;28;20083;-61
2022/03/07 00:35:08;;;;;;;6.35;2.63;;;1.60;99.90;;;;;;5020077;28;20072;-60
2022/03/07 00:37:33;;;;;;;10.70;2.63;;;1.50;99.90;;;;;;5021547;28;20075;-61
2022/03/07 00:39:59;;;;;;;5.80;2.35;;;1.50;99.90;;;;;;5019021;28;20548;-61
2022/03/07 00:42:24;;;;;;;4.78;2.28;;;1.50;99.90;;;;;;5021999;28;20044;-62
2022/03/07 00:44:50;;;;;;;3.42;1.90;;;1.50;99.90;;;;;;5021609;28;20034;-61
2022/03/07 00:47:16;;;;;;;3.90;1.92;;;1.60;99.90;;;;;;5020196;28;20083;-60
2022/03/07 00:49:41;;;;;;;10.00;2.63;;;1.70;99.90;;;;;;5020060;28;20041;-60
2022/03/07 00:52:07;;;;;;;8.75;2.08;;;1.70;99.90;;;;;;5020995;28;20038;-59
2022/03/07 00:54:32;;;;;;;4.78;1.92;;;1.70;99.90;;;;;;5018714;28;20039;-62
2022/03/07 00:56:58;;;;;;;6.53;2.25;;;1.80;99.90;;;;;;5022059;28;20060;-60
2022/03/07 00:59:23;;;;;;;6.07;2.30;;;1.80;99.90;;;;;;5033658;28;20040;-61
2022/03/07 01:01:50;;;;;;;6.28;2.20;;;1.70;99.90;;;;;;5020992;28;20440;-60
2022/03/07 01:04:16;;;;;;;5.63;2.40;;;1.70;99.90;;;;;;5020006;28;20129;-61
2022/03/07 01:06:41;;;;;;;6.95;2.08;;;1.60;99.90;;;;;;5019094;28;20113;-60
2022/03/07 01:09:07;;;;;;;4.65;2.33;;;1.50;99.90;;;;;;5021723;28;20079;-61
2022/03/07 01:11:32;;;;;;;7.53;2.92;;;1.40;99.90;;;;;;5016369;28;20030;-62
2022/03/07 01:13:58;;;;;;;5.65;2.20;;;1.40;99.90;;;;;;5037072;28;20401;-60
2022/03/07 01:16:23;;;;;;;5.00;2.38;;;1.40;99.90;;;;;;5017554;28;20405;-60
2022/03/07 01:18:49;;;;;;;3.10;1.80;;;1.40;99.90;;;;;;5034217;28;20030;-60
2022/03/07 01:21:15;;;;;;;8.27;2.28;;;1.40;99.90;;;;;;5018127;28;20117;-60
2022/03/07 01:23:42;;;;;;;3.35;1.90;;;1.40;99.90;;;;;;5019236;28;20034;-60
2022/03/07 01:26:08;;;;;;;7.03;2.08;;;1.40;99.90;;;;;;5020392;28;20493;-62
2022/03/07 01:28:34;;;;;;;4.47;2.22;;;1.30;99.90;;;;;;5021006;28;20049;-60
2022/03/07 01:30:59;;;;;;;8.95;2.60;;;1.30;99.90;;;;;;5021294;28;20037;-64
2022/03/07 01:33:25;;;;;;;5.28;2.53;;;1.40;99.90;;;;;;5017850;28;20064;-62
2022/03/07 01:35:50;;;;;;;3.47;1.77;;;1.40;99.90;;;;;;5021280;28;20044;-61
2022/03/07 01:38:16;;;;;;;5.80;1.88;;;1.40;99.90;;;;;;5018360;28;20040;-61
2022/03/07 01:40:43;;;;;;;5.15;2.10;;;1.40;99.90;;;;;;5019288;28;20042;-62
2022/03/07 01:43:09;;;;;;;4.93;2.20;;;1.50;99.90;;;;;;5017460;28;20033;-61
2022/03/07 01:45:34;;;;;;;5.40;2.40;;;1.50;99.90;;;;;;5019730;28;20041;-60
2022/03/07 01:48:01;;;;;;;6.82;2.03;;;1.50;99.90;;;;;;5024202;28;20048;-63
2022/03/07 01:50:27;;;;;;;4.85;2.58;;;1.50;99.90;;;;;;5024689;28;20034;-61
2022/03/07 01:52:56;;;;;;;5.57;2.00;;;1.40;99.90;;;;;;5021427;28;20046;-61
2022/03/07 01:55:21;;;;;;;4.97;2.33;;;1.40;99.90;;;;;;5020738;28;20417;-62
2022/03/07 01:57:49;;;;;;;2.92;2.05;;;1.40;99.90;;;;;;5018537;28;20033;-62
2022/03/07 02:00:20;;;;;;;3.05;1.70;;;1.50;99.90;;;;;;5020002;28;20048;-62
2022/03/07 02:02:46;;;;;;;3.38;1.70;;;1.50;99.90;;;;;;5031865;28;20034;-61
2022/03/07 02:05:12;;;;;;;7.28;1.88;;;1.60;99.90;;;;;;5017183;28;20048;-61
2022/03/07 02:07:38;;;;;;;3.28;1.85;;;1.60;99.90;;;;;;5018846;28;20041;-62
2022/03/07 02:10:05;;;;;;;5.50;2.10;;;1.70;99.90;;;;;;5018325;28;20509;-61
2022/03/07 02:12:31;;;;;;;6.05;2.22;;;1.70;99.90;;;;;;5016064;28;20050;-62
2022/03/07 02:14:57;;;;;;;5.05;2.42;;;1.70;99.90;;;;;;5020901;28;20073;-61
2022/03/07 02:17:22;;;;;;;7.70;2.33;;;1.80;99.90;;;;;;5017235;28;20053;-62
2022/03/07 02:19:48;;;;;;;8.80;2.33;;;1.70;99.90;;;;;;5020811;28;20041;-63
2022/03/07 02:22:17;;;;;;;6.22;2.50;;;1.70;99.90;;;;;;5018186;28;20053;-64
2022/03/07 02:24:43;;;;;;;4.97;2.40;;;1.80;99.90;;;;;;5019393;28;20092;-63
2022/03/07 02:27:10;;;;;;;4.53;2.15;;;1.80;99.90;;;;;;5021344;28;20485;-61
2022/03/07 02:29:37;;;;;;;4.35;2.00;;;1.70;99.90;;;;;;5016485;28;20038;-61
2022/03/07 02:32:05;;;;;;;3.03;1.88;;;1.70;99.90;;;;;;5019350;28;20033;-61
2022/03/07 02:34:31;;;;;;;3.85;2.22;;;1.70;99.90;;;;;;5017886;28;20502;-61
2022/03/07 02:36:57;;;;;;;4.30;1.77;;;1.60;99.90;;;;;;5020677;28;20050;-62
2022/03/07 02:39:22;;;;;;;3.85;1.98;;;1.60;99.90;;;;;;5020551;28;20452;-62
2022/03/07 02:41:48;;;;;;;6.47;2.03;;;1.50;99.90;;;;;;5019791;28;20087;-61
2022/03/07 02:44:14;;;;;;;4.63;2.05;;;1.50;99.90;;;;;;5022125;28;20497;-62
2022/03/07 02:46:40;;;;;;;3.42;1.98;;;1.50;99.90;;;;;;5019045;28;20041;-62
2022/03/07 02:49:06;;;;;;;7.07;3.13;;;1.40;99.90;;;;;;5018013;28;20037;-62
2022/03/07 02:51:33;;;;;;;5.45;2.78;;;1.40;99.90;;;;;;5021791;28;20127;-60
2022/03/07 02:53:59;;;;;;;6.20;2.65;;;1.40;99.90;;;;;;5023752;28;20022;-60
2022/03/07 02:56:25;;;;;;;4.63;2.13;;;1.30;99.90;;;;;;5021152;28;20037;-60
2022/03/07 02:58:50;;;;;;;8.55;2.13;;;1.40;99.90;;;;;;5024684;28;20029;-60
2022/03/07 03:01:16;;;;;;;9.45;2.95;;;1.30;99.90;;;;;;5020743;28;20113;-60
2022/03/07 03:03:41;;;;;;;6.68;2.35;;;1.20;99.90;;;;;;5023075;28;20053;-62
2022/03/07 03:06:07;;;;;;;4.30;2.22;;;1.20;99.90;;;;;;5022703;28;20033;-61
2022/03/07 03:08:33;;;;;;;8.23;2.50;;;1.20;99.90;;;;;;5021958;28;20041;-61
2022/03/07 03:10:59;;;;;;;6.10;2.25;;;1.10;99.90;;;;;;5022697;28;20026;-61
2022/03/07 03:13:25;;;;;;;5.88;2.45;;;1.10;99.90;;;;;;5020464;28;20022;-60
2022/03/07 03:15:52;;;;;;;4.60;2.13;;;1.10;99.90;;;;;;5022871;28;20151;-61
2022/03/07 03:18:19;;;;;;;6.90;2.10;;;1.00;99.90;;;;;;5021083;28;20103;-60
2022/03/07 03:20:46;;;;;;;5.78;2.50;;;1.00;99.90;;;;;;5023192;28;20540;-60
2022/03/07 03:23:12;;;;;;;7.68;2.70;;;0.90;99.90;;;;;;5021228;28;20128;-60
2022/03/07 03:25:38;;;;;;;8.60;2.92;;;0.90;99.90;;;;;;5021526;28;20034;-60
2022/03/07 03:28:04;;;;;;;5.07;2.30;;;0.80;99.90;;;;;;5022426;28;20496;-61
2022/03/07 03:30:30;;;;;;;6.85;2.55;;;0.80;99.90;;;;;;5019650;28;20124;-60
2022/03/07 03:32:56;;;;;;;7.05;2.72;;;0.80;99.90;;;;;;5023890;28;20375;-61
2022/03/07 03:35:22;;;;;;;6.18;2.30;;;0.90;99.90;;;;;;5023135;28;20045;-60
2022/03/07 03:37:47;;;;;;;4.85;2.33;;;0.90;99.90;;;;;;5023774;28;20037;-60
2022/03/07 03:40:13;;;;;;;5.70;2.50;;;0.90;99.90;;;;;;5020303;28;20042;-60
2022/03/07 03:42:39;;;;;;;6.32;2.30;;;0.80;99.90;;;;;;5019245;28;20049;-63
2022/03/07 03:45:08;;;;;;;4.57;2.20;;;0.80;99.90;;;;;;5022200;28;20387;-61
2022/03/07 03:47:37;;;;;;;10.60;3.28;;;0.80;99.90;;;;;;5021120;28;20048;-61
2022/03/07 03:50:06;;;;;;;4.38;2.20;;;0.70;99.90;;;;;;5021772;28;20449;-60
2022/03/07 03:52:32;;;;;;;4.95;2.28;;;0.70;99.90;;;;;;5021336;28;20049;-61
2022/03/07 03:54:58;;;;;;;3.63;2.33;;;0.70;99.90;;;;;;5021103;28;20056;-61
2022/03/07 03:57:24;;;;;;;5.70;3.15;;;0.70;99.90;;;;;;5022363;28;20063;-60
2022/03/07 03:59:50;;;;;;;5.13;2.67;;;0.70;99.90;;;;;;5019786;28;20447;-62
2022/03/07 04:02:16;;;;;;;6.18;2.90;;;0.70;99.90;;;;;;5023279;28;20044;-60
2022/03/07 04:04:41;;;;;;;6.18;2.72;;;0.60;99.90;;;;;;5019604;28;20038;-61
2022/03/07 04:07:08;;;;;;;6.82;2.70;;;0.60;99.90;;;;;;5022320;28;20030;-60
2022/03/07 04:09:34;;;;;;;6.97;2.45;;;0.60;99.90;;;;;;5022581;28;20143;-60
2022/03/07 04:12:00;;;;;;;4.93;2.60;;;0.60;99.90;;;;;;5021170;28;20457;-60
2022/03/07 04:14:26;;;;;;;7.78;4.00;;;0.50;99.90;;;;;;5020570;28;20065;-63
2022/03/07 04:16:53;;;;;;;5.22;2.90;;;0.40;99.90;;;;;;5026509;28;20083;-61
2022/03/07 04:19:18;;;;;;;4.13;2.13;;;0.40;99.90;;;;;;5021939;28;20083;-61
2022/03/07 04:21:45;;;;;;;8.73;4.20;;;0.30;99.90;;;;;;5022330;28;20037;-60
2022/03/07 04:24:12;;;;;;;5.43;2.10;;;0.30;99.90;;;;;;5035032;28;20062;-60
2022/03/07 04:26:38;;;;;;;4.72;2.35;;;0.30;99.90;;;;;;5021971;28;20065;-60
2022/03/07 04:29:07;;;;;;;8.07;3.72;;;0.20;99.90;;;;;;5022888;28;20053;-60
2022/03/07 04:31:37;;;;;;;5.68;2.83;;;0.20;99.90;;;;;;5019828;28;20040;-60
2022/03/07 04:34:04;;;;;;;5.72;2.85;;;0.20;99.90;;;;;;5021403;28;20034;-60
2022/03/07 04:36:30;;;;;;;7.18;2.78;;;0.20;99.90;;;;;;5020610;28;20551;-62
2022/03/07 04:38:56;;;;;;;9.68;3.35;;;0.30;99.90;;;;;;5020469;28;20025;-59
2022/03/07 04:41:21;;;;;;;5.55;2.97;;;0.40;99.90;;;;;;5020917;28;20029;-61
2022/03/07 04:43:47;;;;;;;5.85;2.85;;;0.40;99.90;;;;;;5025637;28;20038;-60
2022/03/07 04:46:12;;;;;;;9.18;3.38;;;0.30;99.90;;;;;;5019233;28;20034;-60
2022/03/07 04:48:38;;;;;;;5.75;2.90;;;0.40;99.90;;;;;;5021167;28;20029;-60
2022/03/07 04:51:04;;;;;;;5.65;3.05;;;0.30;99.90;;;;;;5019602;28;20128;-60
2022/03/07 04:53:30;;;;;;;8.35;2.67;;;0.30;99.90;;;;;;5020432;28;20045;-60
2022/03/07 04:55:56;;;;;;;4.80;2.63;;;0.30;99.90;;;;;;5020881;28;20087;-60
2022/03/07 04:58:21;;;;;;;7.03;3.92;;;0.30;99.90;;;;;;5019035;28;20033;-60
2022/03/07 05:00:47;;;;;;;7.38;2.80;;;0.30;99.90;;;;;;5021629;28;20038;-62
2022/03/07 05:03:13;;;;;;;5.68;3.00;;;0.30;99.90;;;;;;5018535;28;20041;-60
2022/03/07 05:05:39;;;;;;;7.05;2.90;;;0.40;99.90;;;;;;5021553;28;20029;-61
2022/03/07 05:08:05;;;;;;;8.23;3.13;;;0.30;99.90;;;;;;5018095;28;20037;-61
2022/03/07 05:10:31;;;;;;;7.35;3.45;;;0.30;99.90;;;;;;5019049;28;20030;-59
2022/03/07 05:12:56;;;;;;;9.23;3.70;;;0.30;99.90;;;;;;5019063;28;20075;-60
2022/03/07 05:15:22;;;;;;;6.65;2.90;;;0.40;99.90;;;;;;5021619;28;20509;-61
2022/03/07 05:17:53;;;;;;;10.98;3.70;;;0.50;99.90;;;;;;5021254;28;20104;-60
2022/03/07 05:20:20;;;;;;;5.45;3.00;;;0.50;99.90;;;;;;5016977;28;20505;-60
2022/03/07 05:22:46;;;;;;;6.07;2.90;;;0.60;99.90;;;;;;5016984;28;20034;-60
2022/03/07 05:25:13;;;;;;;7.57;3.25;;;0.60;99.90;;;;;;5021752;28;20044;-60
2022/03/07 05:27:39;;;;;;;6.75;2.75;;;0.60;99.90;;;;;;5021298;28;20033;-61
2022/03/07 05:30:07;;;;;;;6.20;3.03;;;0.70;99.90;;;;;;5021440;28;20117;-60
2022/03/07 05:32:33;;;;;;;6.82;3.42;;;0.60;99.90;;;;;;5020065;28;20108;-60
2022/03/07 05:34:59;;;;;;;6.50;3.15;;;0.50;99.90;;;;;;5016382;28;20074;-60
2022/03/07 05:37:25;;;;;;;7.57;3.38;;;0.50;99.90;;;;;;5024260;28;20037;-60
2022/03/07 05:39:51;;;;;;;11.63;4.38;;;0.50;99.90;;;;;;5017540;28;20042;-60
2022/03/07 05:42:17;;;;;;;8.93;4.10;;;0.50;99.90;;;;;;5019257;28;20037;-62
2022/03/07 05:44:43;;;;;;;6.72;3.08;;;0.40;99.90;;;;;;5019937;28;20044;-61
2022/03/07 05:47:08;;;;;;;8.23;3.40;;;0.40;99.90;;;;;;5018825;28;20036;-60
2022/03/07 05:49:34;;;;;;;10.88;3.58;;;0.40;99.90;;;;;;5027879;28;20045;-60
2022/03/07 05:51:59;;;;;;;12.07;4.13;;;0.40;99.90;;;;;;5027736;28;20045;-60
2022/03/07 05:54:25;;;;;;;7.47;3.30;;;0.40;99.90;;;;;;5018719;28;20041;-61
2022/03/07 05:56:51;;;;;;;7.60;3.28;;;0.40;99.90;;;;;;5021087;28;20497;-59
2022/03/07 05:59:17;;;;;;;8.70;4.00;;;0.40;99.90;;;;;;5020713;28;20034;-60
2022/03/07 06:01:42;;;;;;;8.23;3.30;;;0.30;99.90;;;;;;5025538;28;20025;-60
2022/03/07 06:04:08;;;;;;;7.18;3.47;;;0.40;99.90;;;;;;5027148;28;20049;-60
2022/03/07 06:06:34;;;;;;;11.30;3.90;;;0.30;99.90;;;;;;5026389;28;20039;-60
2022/03/07 06:09:00;;;;;;;11.50;4.28;;;0.30;99.90;;;;;;5025439;28;20042;-61
2022/03/07 06:11:25;;;;;;;8.25;3.60;;;0.30;99.90;;;;;;5026545;28;20033;-60
2022/03/07 06:13:51;;;;;;;9.18;4.05;;;0.30;99.90;;;;;;5027609;28;20068;-61
2022/03/07 06:16:17;;;;;;;9.35;4.43;;;0.30;99.90;;;;;;5026786;28;20034;-60
2022/03/07 06:18:42;;;;;;;7.45;3.80;;;0.30;99.90;;;;;;5026797;28;20049;-61
2022/03/07 06:21:08;;;;;;;8.85;4.30;;;0.30;99.90;;;;;;5027380;28;20499;-60
2022/03/07 06:23:34;;;;;;;6.32;3.20;;;0.20;99.90;;;;;;5026955;28;20041;-60
2022/03/07 06:26:00;;;;;;;6.40;3.47;;;0.20;99.90;;;;;;5031016;28;20489;-62
2022/03/07 06:28:25;;;;;;;7.05;3.55;;;0.20;99.90;;;;;;5030784;28;20037;-60
2022/03/07 06:30:51;;;;;;;11.90;4.05;;;0.20;99.90;;;;;;5030959;28;20104;-62
2022/03/07 06:33:16;;;;;;;8.32;3.58;;;0.20;99.90;;;;;;5030030;28;20508;-60
2022/03/07 06:35:42;;;;;;;6.15;3.08;;;0.30;99.90;;;;;;5028739;28;20041;-63
2022/03/07 06:38:08;;;;;;;9.77;4.68;;;0.30;99.90;;;;;;5031252;28;20029;-61
2022/03/07 06:40:35;;;;;;;8.43;3.42;;;0.30;99.90;;;;;;5030376;28;20037;-60
2022/03/07 06:43:01;;;;;;;10.70;3.53;;;0.30;99.90;;;;;;5030006;28;20045;-62
2022/03/07 06:45:28;;;;;;;10.38;3.53;;;0.30;99.90;;;;;;5028578;28;20064;-62
2022/03/07 06:47:54;;;;;;;8.10;4.05;;;0.30;99.90;;;;;;5033897;28;20587;-61
2022/03/07 06:50:19;;;;;;;7.90;3.63;;;0.30;99.90;;;;;;5029388;28;20026;-60
2022/03/07 06:52:45;;;;;;;7.38;3.60;;;0.40;99.90;;;;;;5030607;28;20428;-62
2022/03/07 06:55:12;;;;;;;12.05;4.32;;;0.40;99.90;;;;;;5025328;28;20048;-61
2022/03/07 06:57:38;;;;;;;10.50;3.65;;;0.50;99.90;;;;;;5032219;28;20030;-61
2022/03/07 07:00:06;;;;;;;10.02;4.05;;;0.60;99.90;;;;;;5026503;28;20444;-61
2022/03/07 07:02:32;;;;;;;10.15;4.43;;;0.60;99.90;;;;;;5027357;28;20029;-63
2022/03/07 07:04:58;;;;;;;7.72;3.95;;;0.60;99.90;;;;;;5026980;28;20409;-61
2022/03/07 07:07:24;;;;;;;8.75;4.03;;;0.70;99.90;;;;;;5029430;28;20119;-61
2022/03/07 07:09:49;;;;;;;5.93;3.50;;;0.70;99.90;;;;;;5028183;28;20778;-65
2022/03/07 07:12:15;;;;;;;12.57;4.50;;;0.70;99.90;;;;;;5031006;28;20033;-60
2022/03/07 07:14:41;;;;;;;8.55;4.15;;;0.70;99.90;;;;;;5028116;28;20041;-62
2022/03/07 07:17:06;;;;;;;9.65;4.72;;;0.80;99.90;;;;;;5028151;28;20037;-64
2022/03/07 07:19:32;;;;;;;12.95;5.13;;;0.80;99.90;;;;;;5027238;28;20397;-61
2022/03/07 07:21:57;;;;;;;7.32;4.07;;;0.80;99.90;;;;;;5029399;28;20041;-61
2022/03/07 07:24:23;;;;;;;7.68;4.38;;;0.90;99.90;;;;;;5027791;28;20041;-61
2022/03/07 07:26:48;;;;;;;11.95;4.60;;;1.00;99.90;;;;;;5027180;28;20574;-62
2022/03/07 07:29:14;;;;;;;10.30;4.05;;;1.10;99.90;;;;;;5028212;28;20029;-61
2022/03/07 07:31:40;;;;;;;6.38;3.38;;;1.30;99.90;;;;;;5023307;28;20044;-62
2022/03/07 07:34:05;;;;;;;8.55;4.03;;;1.50;99.90;;;;;;5024932;28;20398;-62
2022/03/07 07:36:31;;;;;;;7.25;3.00;;;1.70;99.90;;;;;;5026541;28;20121;-63
2022/03/07 07:38:56;;;;;;;10.65;3.95;;;1.80;99.90;;;;;;5023235;28;20038;-62
2022/03/07 07:41:22;;;;;;;9.35;4.40;;;2.00;99.90;;;;;;5027829;28;20044;-63
2022/03/07 07:43:50;;;;;;;7.93;3.75;;;2.20;99.90;;;;;;5030312;28;20468;-63
2022/03/07 07:46:18;;;;;;;7.35;3.38;;;2.30;99.90;;;;;;5026803;28;20159;-61
2022/03/07 07:48:43;;;;;;;12.48;4.60;;;2.50;99.90;;;;;;5023336;28;20021;-61
2022/03/07 07:51:09;;;;;;;9.88;3.70;;;2.60;99.90;;;;;;5024554;28;20052;-61
2022/03/07 07:53:35;;;;;;;9.25;3.35;;;2.80;99.90;;;;;;5025759;28;20116;-61
2022/03/07 07:56:02;;;;;;;5.97;3.42;;;3.00;99.90;;;;;;5025258;28;20051;-61
2022/03/07 07:58:27;;;;;;;5.75;3.40;;;3.40;99.90;;;;;;5029806;28;20457;-61
2022/03/07 08:00:53;;;;;;;9.20;2.90;;;3.50;99.90;;;;;;5026354;28;20108;-61
2022/03/07 08:03:18;;;;;;;7.65;3.38;;;3.70;99.90;;;;;;5028279;28;20099;-62
2022/03/07 08:05:48;;;;;;;6.07;3.47;;;3.80;99.90;;;;;;5027952;28;20068;-63
2022/03/07 08:08:14;;;;;;;10.50;3.95;;;4.00;99.90;;;;;;5029995;28;20041;-63
2022/03/07 08:10:40;;;;;;;9.13;3.40;;;4.00;99.90;;;;;;5024922;28;20030;-61
2022/03/07 08:13:05;;;;;;;6.18;3.10;;;4.10;99.90;;;;;;5022140;28;20512;-62
2022/03/07 08:15:31;;;;;;;6.43;3.40;;;4.10;99.90;;;;;;5024103;28;20077;-62
2022/03/07 08:17:57;;;;;;;6.68;3.00;;;4.20;99.90;;;;;;5027009;28;20072;-61
2022/03/07 08:20:23;;;;;;;6.22;3.13;;;4.30;99.90;;;;;;5023488;28;20044;-62
2022/03/07 08:22:50;;;;;;;7.43;2.80;;;4.30;99.90;;;;;;5026318;28;20037;-63
2022/03/07 08:25:16;;;;;;;7.78;2.80;;;4.50;99.90;;;;;;5029466;28;20397;-62
2022/03/07 08:27:42;;;;;;;4.72;2.83;;;4.50;99.90;;;;;;5027444;28;20038;-61
2022/03/07 08:30:13;;;;;;;7.47;3.08;;;4.60;99.90;;;;;;5028925;28;20048;-62
2022/03/07 08:32:40;;;;;;;11.07;3.05;;;4.70;99.90;;;;;;5028666;28;20029;-61
2022/03/07 08:35:08;;;;;;;5.20;2.90;;;4.70;99.90;;;;;;5027206;28;20030;-60
2022/03/07 08:37:35;;;;;;;14.52;2.58;;;4.90;99.90;;;;;;5028266;28;20052;-64
2022/03/07 08:40:02;;;;;;;18.38;3.53;;;4.90;99.90;;;;;;5029231;28;20706;-61
2022/03/07 08:42:29;;;;;;;4.28;2.30;;;5.00;99.90;;;;;;5027431;28;20033;-63
2022/03/07 08:44:54;;;;;;;6.63;2.45;;;5.00;99.90;;;;;;5025888;28;20037;-61
2022/03/07 08:47:20;;;;;;;6.68;2.50;;;5.00;99.90;;;;;;5024655;28;20037;-62
2022/03/07 08:49:46;;;;;;;4.05;2.20;;;5.20;99.90;;;;;;5028939;28;20101;-62
2022/03/07 08:52:15;;;;;;;3.17;1.60;;;5.30;99.90;;;;;;5027297;28;20063;-63
2022/03/07 08:54:44;;;;;;;4.50;2.45;;;5.30;99.90;;;;;;5027841;28;20517;-62
2022/03/07 08:57:10;;;;;;;4.10;1.73;;;5.40;99.90;;;;;;5026653;28;20119;-64
2022/03/07 08:59:36;;;;;;;6.60;2.33;;;5.40;99.90;;;;;;5026937;28;20037;-61
2022/03/07 09:02:03;;;;;;;5.50;2.08;;;5.40;99.90;;;;;;5025409;28;20045;-61
2022/03/07 09:04:29;;;;;;;4.38;2.30;;;5.40;99.90;;;;;;5029089;28;20100;-62
2022/03/07 09:06:55;;;;;;;10.02;2.33;;;5.50;99.90;;;;;;5030772;28;20021;-62
2022/03/07 09:09:21;;;;;;;5.05;2.85;;;5.60;99.90;;;;;;5031133;28;20455;-62
2022/03/07 09:11:47;;;;;;;3.47;1.75;;;5.60;99.90;;;;;;5027797;28;20180;-62
2022/03/07 09:14:14;;;;;;;3.90;2.08;;;5.70;99.90;;;;;;5029536;28;20116;-62
2022/03/07 09:16:40;;;;;;;5.28;2.40;;;5.70;99.90;;;;;;5026795;28;20498;-62
2022/03/07 09:19:05;;;;;;;7.60;2.40;;;5.80;99.10;;;;;;5028561;28;20037;-63
2022/03/07 09:21:32;;;;;;;4.45;2.05;;;5.80;99.70;;;;;;5027134;28;20117;-62
2022/03/07 09:23:58;;;;;;;4.63;2.50;;;5.80;99.90;;;;;;5028042;28;20057;-62
2022/03/07 09:26:24;;;;;;;3.13;2.05;;;5.90;99.70;;;;;;5025238;28;20072;-62
2022/03/07 09:28:49;;;;;;;4.20;2.60;;;6.00;99.20;;;;;;5026442;28;20486;-62
2022/03/07 09:31:15;;;;;;;10.40;2.50;;;6.10;98.30;;;;;;5027826;28;20029;-61
2022/03/07 09:33:40;;;;;;;6.63;2.38;;;6.10;99.00;;;;;;5025222;28;20410;-62
2022/03/07 09:36:06;;;;;;;5.18;2.65;;;6.20;98.70;;;;;;5028199;28;20049;-63
2022/03/07 09:38:34;;;;;;;5.00;2.03;;;6.20;98.40;;;;;;5027819;28;20037;-61
2022/03/07 09:41:00;;;;;;;6.60;2.35;;;6.30;97.70;;;;;;5037289;28;20095;-61
2022/03/07 09:43:26;;;;;;;6.55;2.42;;;6.40;97.50;;;;;;5027177;28;20034;-62
2022/03/07 09:45:53;;;;;;;6.82;3.25;;;6.50;97.80;;;;;;5031220;28;20558;-61
2022/03/07 09:48:21;;;;;;;5.30;2.70;;;6.60;96.80;;;;;;5031409;28;20583;-61
2022/03/07 09:50:47;;;;;;;4.40;2.45;;;6.60;96.10;;;;;;5030062;28;20041;-60
2022/03/07 09:53:13;;;;;;;4.75;2.05;;;6.40;96.10;;;;;;5028801;28;20037;-60
2022/03/07 09:55:39;;;;;;;6.75;2.92;;;6.30;96.30;;;;;;5029468;28;20041;-63
2022/03/07 09:58:06;;;;;;;5.68;2.13;;;6.40;97.10;;;;;;5026240;28;20053;-61
2022/03/07 10:00:32;;;;;;;4.88;2.20;;;6.40;97.00;;;;;;5020291;28;20454;-60
2022/03/07 10:03:00;;;;;;;4.40;2.55;;;6.40;96.80;;;;;;5027969;28;20029;-61
2022/03/07 10:05:27;;;;;;;4.10;2.13;;;6.40;96.20;;;;;;5025219;28;20038;-60
2022/03/07 10:07:53;;;;;;;5.53;2.42;;;6.30;96.30;;;;;;5027008;28;20037;-61
2022/03/07 10:10:19;;;;;;;4.65;2.90;;;6.40;95.80;;;;;;5028647;28;20044;-61
2022/03/07 10:12:47;;;;;;;3.78;1.98;;;6.50;95.90;;;;;;5027224;28;20029;-62
2022/03/07 10:15:18;;;;;;;4.53;2.38;;;6.50;96.90;;;;;;5028783;28;20477;-61
2022/03/07 10:17:52;;;;;;;9.30;2.33;;;6.60;95.90;;;;;;5029346;28;20029;-62
2022/03/07 10:20:20;;;;;;;4.72;2.17;;;6.60;95.40;;;;;;5030067;28;20044;-61
2022/03/07 10:22:50;;;;;;;8.40;2.55;;;6.70;95.30;;;;;;5028601;28;20044;-60
2022/03/07 10:25:21;;;;;;;5.07;1.88;;;6.50;94.40;;;;;;5029233;28;20042;-60
2022/03/07 10:27:49;;;;;;;4.10;2.55;;;6.50;95.00;;;;;;5028643;28;20713;-62
2022/03/07 10:30:22;;;;;;;6.07;2.85;;;6.40;95.20;;;;;;5040098;28;20048;-61
2022/03/07 10:33:00;;;;;;;7.50;2.47;;;6.40;95.30;;;;;;5027057;28;20032;-61
2022/03/07 10:35:34;;;;;;;4.35;2.33;;;6.30;95.60;;;;;;5026425;28;20187;-64
2022/03/07 10:38:06;;;;;;;7.47;2.97;;;6.40;96.00;;;;;;5028094;28;20038;-60
2022/03/07 10:40:34;;;;;;;7.40;2.38;;;6.40;95.70;;;;;;5027885;28;20075;-62
2022/03/07 10:43:00;;;;;;;4.70;2.47;;;6.40;95.90;;;;;;5026052;28;20117;-62
2022/03/07 10:45:28;;;;;;;4.18;2.20;;;6.40;95.90;;;;;;5027387;28;20111;-62
2022/03/07 10:47:59;;;;;;;5.65;3.10;;;6.40;95.70;;;;;;5029202;28;20045;-61
2022/03/07 10:50:27;;;;;;;4.53;2.40;;;6.40;96.10;;;;;;5022685;28;20711;-62
2022/03/07 10:53:02;;;;;;;5.47;2.30;;;6.40;96.70;;;;;;5027719;28;20029;-62
2022/03/07 10:55:29;;;;;;;6.95;3.00;;;6.50;97.20;;;;;;5026679;28;20045;-65
2022/03/07 10:58:12;;;;;;;4.50;2.00;;;6.50;96.10;;;;;;5027949;28;20037;-64
2022/03/07 11:00:54;;;;;;;9.45;2.63;;;6.60;95.60;;;;;;5024873;28;20116;-62
2022/03/07 11:03:29;;;;;;;2.97;2.13;;;6.60;96.40;;;;;;5040167;28;20116;-62
2022/03/07 11:05:56;;;;;;;10.43;2.30;;;6.70;96.30;;;;;;5026999;28;20237;-62
2022/03/07 11:08:22;;;;;;;8.15;2.42;;;6.70;96.10;;;;;;5028183;28;20584;-61
2022/03/07 11:10:54;;;;;;;4.78;2.15;;;6.70;95.70;;;;;;5028882;28;20493;-63
2022/03/07 11:13:26;;;;;;;3.85;2.15;;;6.70;96.30;;;;;;5032510;28;20025;-63
2022/03/07 11:15:58;;;;;;;10.63;2.72;;;6.70;95.60;;;;;;5027360;28;20043;-61
2022/03/07 11:18:24;;;;;;;4.70;2.45;;;6.70;96.20;;;;;;5025128;28;20048;-62
2022/03/07 11:20:52;;;;;;;3.17;2.15;;;6.70;95.50;;;;;;5029004;28;20034;-61
2022/03/07 11:23:18;;;;;;;3.63;1.88;;;6.70;96.10;;;;;;5028458;28;20037;-62
2022/03/07 11:25:45;;;;;;;7.18;2.33;;;6.80;96.00;;;;;;5024598;28;20072;-62
2022/03/07 11:28:12;;;;;;;3.75;2.13;;;6.80;96.20;;;;;;5021573;28;20061;-62
2022/03/07 11:30:42;;;;;;;5.50;2.55;;;6.80;96.00;;;;;;5025957;28;20045;-61
2022/03/07 11:33:12;;;;;;;3.28;2.15;;;6.90;95.60;;;;;;5024500;28;20048;-61
2022/03/07 11:35:47;;;;;;;5.60;2.17;;;7.00;95.90;;;;;;5023491;28;20049;-63
2022/03/07 11:38:17;;;;;;;6.25;1.95;;;7.00;95.10;;;;;;5046142;28;20080;-62
2022/03/07 11:40:56;;;;;;;3.05;1.80;;;6.90;94.60;;;;;;5039805;28;20037;-62
2022/03/07 11:43:24;;;;;;;4.95;2.50;;;6.90;94.40;;;;;;5032608;28;20041;-62
2022/03/07 11:45:51;;;;;;;5.10;1.95;;;6.90;94.50;;;;;;5027232;28;20498;-61
2022/03/07 11:48:16;;;;;;;4.22;2.10;;;6.90;94.50;;;;;;5027711;28;20038;-62
2022/03/07 11:50:42;;;;;;;3.80;2.22;;;6.90;93.80;;;;;;5025400;28;22393;-60
2022/03/07 11:53:08;;;;;;;3.78;2.10;;;6.90;94.40;;;;;;5024300;28;20053;-61
2022/03/07 11:55:45;;;;;;;5.70;1.90;;;7.00;94.30;;;;;;5021719;28;20053;-63
2022/03/07 11:58:11;;;;;;;4.45;2.15;;;7.10;94.00;;;;;;5022499;28;20037;-63
2022/03/07 12:00:38;;;;;;;6.57;2.15;;;7.10;93.70;;;;;;5021900;28;20041;-65
2022/03/07 12:03:15;;;;;;;3.70;1.92;;;7.20;94.40;;;;;;5023722;28;20030;-62
2022/03/07 12:05:43;;;;;;;2.42;2.00;;;7.20;93.50;;;;;;5020880;28;20140;-63
2022/03/07 12:08:13;;;;;;;4.65;2.20;;;7.20;93.90;;;;;;5022849;28;20038;-62
2022/03/07 12:10:59;;;;;;;5.15;2.10;;;7.20;93.40;;;;;;5035856;28;20041;-61
2022/03/07 12:13:26;;;;;;;4.35;2.15;;;7.30;94.60;;;;;;5023341;28;20042;-61
2022/03/07 12:16:00;;;;;;;4.50;2.05;;;7.40;93.50;;;;;;5022651;28;20049;-61
2022/03/07 12:18:27;;;;;;;4.32;2.35;;;7.40;93.60;;;;;;5022763;28;20489;-64
2022/03/07 12:20:55;;;;;;;5.88;2.05;;;7.40;93.80;;;;;;5026238;28;20095;-64
2022/03/07 12:23:29;;;;;;;3.53;1.95;;;7.50;93.60;;;;;;5023769;28;20099;-62
2022/03/07 12:25:57;;;;;;;6.50;2.22;;;7.40;93.40;;;;;;5018433;28;20143;-62
2022/03/07 12:28:34;;;;;;;6.25;2.30;;;7.50;92.40;;;;;;5022608;28;20576;-63
2022/03/07 12:31:01;;;;;;;4.47;1.88;;;7.50;91.70;;;;;;5020253;28;20069;-63
2022/03/07 12:33:27;;;;;;;4.15;1.73;;;7.40;92.00;;;;;;5021441;28;20036;-63
2022/03/07 12:36:01;;;;;;;3.10;1.48;;;7.50;91.60;;;;;;5019709;28;20759;-62
2022/03/07 12:38:27;;;;;;;6.07;2.33;;;7.50;91.20;;;;;;5022232;28;20177;-60
2022/03/07 12:40:54;;;;;;;4.10;1.80;;;7.50;91.10;;;;;;5027364;28;20033;-61
2022/03/07 12:43:20;;;;;;;4.60;2.70;;;7.50;90.70;;;;;;5020152;28;20036;-61
2022/03/07 12:45:47;;;;;;;4.90;2.08;;;7.50;91.50;;;;;;5018921;28;20034;-61
2022/03/07 12:48:13;;;;;;;4.95;1.67;;;7.50;90.90;;;;;;5022235;28;20037;-62
2022/03/07 12:50:39;;;;;;;3.67;2.35;;;7.50;90.60;;;;;;5022998;28;20058;-61
2022/03/07 12:53:12;;;;;;;3.80;1.85;;;7.60;91.30;;;;;;5021293;28;20076;-62